Braine-le-Chateau, Belgium
Current Conditions -  °F | °C
As of 7:50 PM on Saturday 25 Oct 2014 (Local Time) from EBCI Reporting Station
Broken Clouds Broken Clouds  
Wind Chill: 52°   Ceiling: 3900
Heat Index: 52°   Visibility: 6mi
Dew Point: 48°   Wind: 3mph
Humidity: 88%   Direction: 180°S
Pressure: 30.18"   Gusts: NA
Location:  50.68°N, 4.27°E
Report Text: EBCI 251750Z 18003KT 9999 BKN039 11/09 Q1022 NOSIG
Loading
Personal Weather Stations






























Interactive Weather Map
Tropical Storm Tracking
New forecast layout! Learn more

10-Day Weather Forecast

Advertisements
Track Severe Weather on mobile